Oak Grove, Kentucky
Current Conditions -  °F | °C
As of 8:58 AM on Sunday 21 Dec 2014 (Local Time) from KHOP Reporting Station
Clear Clear  
Wind Chill: 27°   Ceiling: Unl
Heat Index: 33°   Visibility: 10mi
Dew Point: 28°   Wind: 6mph
Humidity: 83%   Direction: 110°ESE
Pressure: 30.24"   Gusts: NA
Location:  36.67°N, 87.44°W
Report Text: KHOP 211458Z AUTO 11005KT 10SM CLR 00/M02 A3024 RMK AO2 SLP247 T00041021 55002
Loading
Personal Weather Stations






























Interactive Weather Map New forecast layout! Learn more

10-Day Weather Forecast

Advertisements
Track Severe Weather on mobile